createdAt,value
2023-02-02T00:01:21.178Z,80.53
2023-02-02T00:03:50.715Z,80.67
2023-02-02T00:06:20.305Z,80.80
2023-02-02T00:08:48.458Z,81.19
2023-02-02T00:11:16.826Z,81.49
2023-02-02T00:13:44.750Z,81.34
2023-02-02T00:16:34.628Z,82.17
2023-02-02T00:19:03.708Z,82.15
2023-02-02T00:21:33.099Z,82.17
2023-02-02T00:24:01.570Z,82.04
2023-02-02T00:26:29.634Z,82.36
2023-02-02T00:28:57.638Z,82.39
2023-02-02T00:31:25.509Z,82.38
2023-02-02T00:33:53.235Z,82.42
2023-02-02T00:36:21.901Z,82.39
2023-02-02T00:38:52.790Z,82.57
2023-02-02T00:41:20.891Z,82.62
2023-02-02T00:44:09.275Z,82.65
2023-02-02T00:46:39.312Z,82.59
2023-02-02T00:49:07.128Z,83.02
2023-02-02T00:51:34.926Z,83.38
2023-02-02T00:54:04.225Z,83.48
2023-02-02T00:56:32.132Z,83.97
2023-02-02T00:58:59.918Z,84.36
2023-02-02T01:01:27.820Z,84.71
2023-02-02T01:03:55.503Z,85.34
2023-02-02T01:06:23.311Z,85.73
2023-02-02T01:08:51.104Z,86.51
2023-02-02T01:11:20.475Z,87.04
2023-02-02T01:13:48.182Z,87.58
2023-02-02T01:16:16.085Z,88.01
2023-02-02T01:18:43.832Z,88.68
2023-02-02T01:21:13.066Z,88.75
2023-02-02T01:23:41.636Z,88.97
2023-02-02T01:26:10.631Z,89.38
2023-02-02T01:28:40.191Z,89.42
2023-02-02T01:31:09.729Z,89.58
2023-02-02T01:33:37.491Z,90.04
2023-02-02T01:36:08.036Z,90.24
2023-02-02T01:38:35.967Z,90.25
2023-02-02T01:41:05.131Z,90.36
2023-02-02T01:43:53.340Z,90.32
2023-02-02T01:46:22.120Z,90.28
2023-02-02T01:48:52.276Z,90.49
2023-02-02T01:51:22.733Z,90.72
2023-02-02T01:53:52.524Z,90.82
2023-02-02T01:56:26.170Z,90.45
2023-02-02T01:58:55.365Z,90.69
2023-02-02T02:01:23.089Z,90.73
2023-02-02T02:03:50.919Z,90.83
2023-02-02T02:06:20.236Z,90.99
2023-02-02T02:08:52.446Z,90.82
2023-02-02T02:11:20.429Z,90.90
2023-02-02T02:14:05.951Z,90.68
2023-02-02T02:16:44.163Z,90.80
2023-02-02T02:19:22.372Z,90.89
2023-02-02T02:22:14.995Z,90.54
2023-02-02T02:25:32.915Z,90.35
2023-02-02T02:28:21.865Z,90.51
2023-02-02T02:31:09.437Z,90.34
2023-02-02T02:33:42.342Z,90.45
2023-02-02T02:36:18.262Z,90.26
2023-02-02T02:38:51.754Z,90.01
2023-02-02T02:41:22.619Z,90.25
2023-02-02T02:43:54.046Z,90.22
2023-02-02T02:46:22.025Z,90.32
2023-02-02T02:48:51.308Z,90.00
2023-02-02T02:51:45.469Z,89.87
2023-02-02T02:54:14.081Z,89.69
2023-02-02T02:56:50.233Z,89.74
2023-02-02T02:59:23.670Z,89.92
2023-02-02T03:01:55.871Z,89.80
2023-02-02T03:04:29.892Z,89.68
2023-02-02T03:07:01.516Z,89.84
2023-02-02T03:09:34.834Z,89.82
2023-02-02T03:12:02.679Z,89.75
2023-02-02T03:14:30.395Z,89.74
2023-02-02T03:16:58.141Z,89.78
2023-02-02T03:19:27.456Z,89.82
2023-02-02T03:21:55.189Z,89.81
2023-02-02T03:24:22.962Z,89.84
2023-02-02T03:26:50.917Z,89.57
2023-02-02T03:29:19.052Z,89.65
2023-02-02T03:31:47.722Z,89.58
2023-02-02T03:34:15.393Z,89.53
2023-02-02T03:36:44.523Z,89.58
2023-02-02T03:39:12.279Z,89.73
2023-02-02T03:41:39.967Z,89.37
2023-02-02T03:44:07.793Z,89.94
2023-02-02T03:46:35.583Z,90.13
2023-02-02T03:49:03.402Z,90.36
2023-02-02T03:51:31.077Z,90.51
2023-02-02T03:54:00.199Z,90.83
2023-02-02T03:56:27.969Z,90.94
2023-02-02T03:58:55.722Z,91.00
2023-02-02T04:01:29.400Z,91.08
2023-02-02T04:03:57.591Z,91.16
2023-02-02T04:06:25.759Z,91.41
2023-02-02T04:08:53.895Z,91.79
2023-02-02T04:11:23.025Z,92.26
2023-02-02T04:13:50.735Z,92.02
2023-02-02T04:16:18.466Z,92.31
2023-02-02T04:18:46.163Z,92.38
2023-02-02T04:21:13.884Z,92.58
2023-02-02T04:23:41.618Z,92.89
2023-02-02T04:26:11.506Z,93.07
2023-02-02T04:28:40.584Z,93.19
2023-02-02T04:31:08.405Z,93.58
2023-02-02T04:33:36.563Z,93.90
2023-02-02T04:36:04.997Z,94.13
2023-02-02T04:38:32.920Z,94.23
2023-02-02T04:41:00.619Z,94.62
2023-02-02T04:43:28.475Z,94.58
2023-02-02T04:45:58.253Z,95.06
2023-02-02T04:48:25.977Z,95.16
2023-02-02T04:50:59.756Z,95.06
2023-02-02T04:53:27.419Z,95.32
2023-02-02T04:55:55.051Z,95.25
2023-02-02T04:58:23.023Z,95.37
2023-02-02T05:00:50.736Z,95.33
2023-02-02T05:03:19.869Z,95.72
2023-02-02T05:05:48.598Z,95.72
2023-02-02T05:08:16.255Z,96.04
2023-02-02T05:10:44.036Z,96.11
2023-02-02T05:13:11.779Z,96.39
2023-02-02T05:15:39.508Z,96.49
2023-02-02T05:18:07.237Z,96.95
2023-02-02T05:20:36.403Z,96.92
2023-02-02T05:23:04.124Z,97.47
2023-02-02T05:25:31.804Z,97.79
2023-02-02T05:27:59.860Z,97.61
2023-02-02T05:30:27.531Z,97.92
2023-02-02T05:32:55.173Z,98.04
2023-02-02T05:35:23.222Z,98.18
2023-02-02T05:37:52.706Z,98.25
2023-02-02T05:40:20.396Z,98.73
2023-02-02T05:42:49.579Z,98.74
2023-02-02T05:45:17.404Z,99.12
2023-02-02T05:47:45.101Z,99.24
2023-02-02T05:50:12.836Z,99.25
2023-02-02T05:52:41.695Z,99.50
2023-02-02T05:55:11.409Z,99.66
2023-02-02T05:57:39.178Z,99.66
2023-02-02T06:00:08.422Z,99.76
2023-02-02T06:02:36.103Z,99.89
2023-02-02T06:05:03.807Z,99.83
2023-02-02T06:07:31.544Z,99.69
2023-02-02T06:09:59.399Z,99.97
2023-02-02T06:12:28.526Z,99.80
2023-02-02T06:14:56.206Z,99.84
2023-02-02T06:17:23.902Z,99.80
2023-02-02T06:19:51.647Z,99.60
2023-02-02T06:22:19.368Z,99.91
2023-02-02T06:24:47.005Z,99.78
2023-02-02T06:27:14.771Z,99.73
2023-02-02T06:29:43.872Z,99.79
2023-02-02T06:32:11.741Z,99.95
2023-02-02T06:34:39.500Z,100.00
2023-02-02T06:37:07.740Z,100.00
2023-02-02T06:39:35.470Z,100.00
2023-02-02T06:42:19.276Z,99.97
2023-02-02T06:44:50.111Z,100.00
2023-02-02T06:47:18.136Z,99.99
2023-02-02T06:49:45.882Z,100.00
2023-02-02T06:52:13.559Z,100.00
2023-02-02T06:54:41.255Z,100.00
2023-02-02T06:57:09.321Z,100.00
2023-02-02T06:59:37.073Z,100.00
2023-02-02T07:02:06.179Z,100.00
2023-02-02T07:04:33.919Z,100.00
2023-02-02T07:07:01.649Z,100.00
2023-02-02T07:09:29.411Z,100.00
2023-02-02T07:11:59.016Z,100.00
2023-02-02T07:14:27.154Z,100.00
2023-02-02T07:16:54.964Z,100.00
2023-02-02T07:19:24.169Z,100.00
2023-02-02T07:21:51.832Z,100.00
2023-02-02T07:24:19.560Z,100.00
2023-02-02T07:26:47.229Z,100.00
2023-02-02T07:29:15.292Z,100.00
2023-02-02T07:31:43.276Z,100.00
2023-02-02T07:34:10.994Z,100.00
2023-02-02T07:36:40.032Z,100.00
2023-02-02T07:39:07.961Z,100.00
2023-02-02T07:41:37.057Z,100.00
2023-02-02T07:44:05.855Z,100.00
2023-02-02T07:46:33.752Z,100.00
2023-02-02T07:49:01.644Z,100.00
2023-02-02T07:51:29.333Z,100.00
2023-02-02T07:53:59.549Z,100.00
2023-02-02T07:56:28.785Z,100.00
2023-02-02T07:58:57.480Z,100.00
2023-02-02T08:01:26.359Z,100.00
2023-02-02T08:03:55.435Z,100.00
2023-02-02T08:06:25.983Z,100.00
2023-02-02T08:08:53.624Z,100.00
2023-02-02T08:11:23.891Z,100.00
2023-02-02T08:13:52.830Z,100.00
2023-02-02T08:16:21.269Z,100.00
2023-02-02T08:18:49.197Z,100.00
2023-02-02T08:21:17.558Z,100.00
